createdAt,value
2023-04-29T00:01:49.099Z,11.90
2023-04-29T00:04:17.589Z,13.10
2023-04-29T00:06:46.191Z,12.60
2023-04-29T00:09:14.468Z,9.60
2023-04-29T00:11:42.642Z,9.30
2023-04-29T00:14:10.708Z,10.40
2023-04-29T00:16:38.904Z,12.70
2023-04-29T00:19:07.256Z,11.90
2023-04-29T00:21:35.529Z,14.20
2023-04-29T00:24:03.805Z,9.90
2023-04-29T00:26:32.386Z,12.10
2023-04-29T00:29:00.761Z,12.80
2023-04-29T00:31:29.540Z,13.50
2023-04-29T00:33:58.243Z,10.40
2023-04-29T00:36:26.529Z,10.00
2023-04-29T00:38:54.680Z,11.60
2023-04-29T00:41:22.853Z,12.00
2023-04-29T00:43:50.924Z,14.00
2023-04-29T00:46:19.114Z,12.80
2023-04-29T00:48:47.375Z,12.50
2023-04-29T00:51:17.502Z,14.40
2023-04-29T00:53:47.014Z,13.70
2023-04-29T00:56:17.426Z,12.50
2023-04-29T00:58:50.005Z,11.90
2023-04-29T01:01:22.439Z,12.90
2023-04-29T01:03:51.569Z,11.20
2023-04-29T01:06:25.977Z,11.10
2023-04-29T01:09:32.038Z,13.00
2023-04-29T01:12:06.857Z,13.20
2023-04-29T01:14:36.787Z,12.00
2023-04-29T01:17:12.324Z,9.80
2023-04-29T01:19:53.674Z,11.60
2023-04-29T01:22:23.520Z,13.70
2023-04-29T01:24:51.799Z,12.80
2023-04-29T01:27:30.104Z,11.10
2023-04-29T01:30:27.164Z,12.90
2023-04-29T01:33:04.830Z,15.40
2023-04-29T01:35:42.040Z,11.80
2023-04-29T01:38:13.477Z,11.10
2023-04-29T01:41:02.552Z,11.90
2023-04-29T01:43:34.319Z,12.20
2023-04-29T01:46:11.908Z,13.20
2023-04-29T01:48:40.880Z,12.10
2023-04-29T01:51:09.057Z,10.40
2023-04-29T01:53:37.428Z,10.50
2023-04-29T01:56:06.438Z,10.00
2023-04-29T01:59:00.908Z,12.10
2023-04-29T02:01:32.362Z,11.40
2023-04-29T02:04:00.759Z,12.10
2023-04-29T02:06:29.215Z,11.50
2023-04-29T02:09:01.383Z,12.70
2023-04-29T02:11:29.558Z,12.40
2023-04-29T02:13:58.762Z,9.80
2023-04-29T02:16:27.285Z,10.10
2023-04-29T02:18:59.091Z,10.30
2023-04-29T02:21:27.487Z,11.80
2023-04-29T02:23:55.848Z,12.20
2023-04-29T02:26:25.659Z,12.80
2023-04-29T02:28:57.534Z,14.10
2023-04-29T02:31:26.121Z,15.00
2023-04-29T02:33:55.803Z,13.20
2023-04-29T02:36:24.897Z,14.30
2023-04-29T02:38:56.034Z,12.50
2023-04-29T02:41:26.055Z,12.50
2023-04-29T02:43:54.336Z,11.20
2023-04-29T02:46:22.851Z,11.60
2023-04-29T02:48:51.311Z,13.00
2023-04-29T02:51:20.209Z,12.70
2023-04-29T02:53:48.463Z,11.70
2023-04-29T02:56:16.630Z,15.50
2023-04-29T02:58:44.816Z,15.00
2023-04-29T03:01:13.205Z,14.20
2023-04-29T03:03:41.777Z,13.30
2023-04-29T03:06:10.479Z,17.70
2023-04-29T03:08:38.624Z,12.40
2023-04-29T03:11:07.019Z,14.00
2023-04-29T03:13:35.474Z,16.40
2023-04-29T03:16:03.868Z,15.60
2023-04-29T03:18:32.533Z,11.20
2023-04-29T03:21:00.709Z,11.20
2023-04-29T03:23:29.281Z,13.70
2023-04-29T03:25:57.784Z,12.40
2023-04-29T03:28:27.476Z,10.90
2023-04-29T03:30:57.028Z,13.60
2023-04-29T03:33:25.559Z,10.00
2023-04-29T03:35:53.831Z,15.80
2023-04-29T03:38:26.208Z,10.30
2023-04-29T03:40:55.096Z,10.80
2023-04-29T03:43:23.469Z,14.50
2023-04-29T03:45:52.083Z,13.90
2023-04-29T03:48:21.751Z,12.30
2023-04-29T03:50:50.131Z,10.90
2023-04-29T03:53:18.737Z,11.10
2023-04-29T03:55:48.625Z,10.40
2023-04-29T04:00:46.199Z,14.80
2023-04-29T04:03:17.851Z,13.30
2023-04-29T04:05:46.126Z,14.80
2023-04-29T04:08:16.145Z,12.80
2023-04-29T04:10:52.612Z,8.60
2023-04-29T04:13:30.816Z,15.60
2023-04-29T04:15:59.522Z,13.70
2023-04-29T04:18:27.877Z,16.40
2023-04-29T04:20:56.053Z,14.90
2023-04-29T04:23:25.967Z,11.00
2023-04-29T04:25:55.165Z,12.30
2023-04-29T04:28:46.680Z,9.50
2023-04-29T04:31:21.276Z,9.20
2023-04-29T04:33:49.681Z,11.10
2023-04-29T04:36:18.059Z,10.90
2023-04-29T04:38:46.641Z,12.70
2023-04-29T04:41:14.916Z,13.60
2023-04-29T04:46:32.461Z,15.20
2023-04-29T04:49:07.900Z,9.60
2023-04-29T04:51:36.794Z,9.90
2023-04-29T04:54:04.962Z,11.40
2023-04-29T04:56:34.773Z,12.20
2023-04-29T04:59:03.872Z,11.90
2023-04-29T05:01:32.281Z,11.60
2023-04-29T05:04:01.164Z,11.90
2023-04-29T05:06:29.613Z,10.70
2023-04-29T05:08:58.103Z,9.10
2023-04-29T05:11:26.473Z,11.00
2023-04-29T05:14:14.811Z,12.60
2023-04-29T05:16:45.196Z,9.60
2023-04-29T05:19:13.718Z,11.60
2023-04-29T05:21:41.787Z,10.20
2023-04-29T05:24:11.516Z,9.00
2023-04-29T05:26:39.882Z,10.90
2023-04-29T05:29:08.286Z,9.70
2023-04-29T05:31:45.129Z,10.20
2023-04-29T05:34:13.501Z,16.40
2023-04-29T05:36:42.599Z,13.20
2023-04-29T05:39:10.774Z,13.00
2023-04-29T05:41:38.951Z,9.80
2023-04-29T05:44:17.969Z,11.40
2023-04-29T05:46:48.907Z,12.60
2023-04-29T05:49:17.490Z,11.30
2023-04-29T05:51:45.673Z,9.60
2023-04-29T05:54:14.548Z,10.00
2023-04-29T05:56:43.135Z,9.70
2023-04-29T05:59:11.406Z,9.80
2023-04-29T06:01:40.296Z,14.70
2023-04-29T06:04:08.733Z,16.50
2023-04-29T06:06:57.637Z,16.30
2023-04-29T06:09:45.992Z,12.40
2023-04-29T06:12:14.561Z,14.20
2023-04-29T06:14:44.674Z,13.00
2023-04-29T06:17:13.056Z,12.40
2023-04-29T06:19:41.544Z,12.70
2023-04-29T06:22:10.902Z,14.50
2023-04-29T06:24:42.077Z,14.60
2023-04-29T06:27:12.716Z,13.60
2023-04-29T06:29:40.981Z,14.90
2023-04-29T06:32:09.237Z,13.50
2023-04-29T06:34:39.690Z,15.60
2023-04-29T06:37:23.929Z,16.20
2023-04-29T06:40:07.154Z,12.60
2023-04-29T06:43:05.535Z,12.60
2023-04-29T06:46:00.126Z,12.00
2023-04-29T06:48:38.026Z,13.10
2023-04-29T06:51:06.306Z,12.20
2023-04-29T06:53:37.954Z,13.20
2023-04-29T06:56:07.773Z,14.90
2023-04-29T06:58:35.947Z,14.30
2023-04-29T07:01:05.089Z,13.30
2023-04-29T07:03:33.510Z,13.70
2023-04-29T07:06:02.023Z,12.70
2023-04-29T07:08:31.094Z,11.30
2023-04-29T07:10:59.372Z,11.10
2023-04-29T07:13:27.742Z,13.20
2023-04-29T07:15:56.226Z,12.50
2023-04-29T07:18:24.526Z,11.60
2023-04-29T07:20:53.164Z,13.50
2023-04-29T07:23:21.966Z,12.50
2023-04-29T07:25:50.136Z,14.30
2023-04-29T07:28:18.716Z,12.60
2023-04-29T07:30:47.239Z,11.90
2023-04-29T07:33:15.475Z,11.10
2023-04-29T07:35:44.767Z,11.40
2023-04-29T07:38:14.070Z,9.30
2023-04-29T07:40:43.271Z,10.20
2023-04-29T07:43:11.741Z,15.50
2023-04-29T07:45:40.733Z,12.60
2023-04-29T07:48:08.912Z,10.90
2023-04-29T07:50:37.491Z,12.70
2023-04-29T07:53:06.180Z,11.20
2023-04-29T07:55:34.342Z,11.30
2023-04-29T07:58:02.827Z,14.80
2023-04-29T08:00:31.712Z,15.50
2023-04-29T08:03:00.015Z,13.90
2023-04-29T08:05:30.973Z,19.90
2023-04-29T08:07:59.811Z,34.70
2023-04-29T08:10:28.192Z,15.90
2023-04-29T08:12:56.461Z,12.30
2023-04-29T08:15:24.844Z,18.80
2023-04-29T08:17:54.598Z,15.60
2023-04-29T08:20:23.531Z,15.40
2023-04-29T08:22:51.923Z,12.70
2023-04-29T08:25:20.499Z,18.00
2023-04-29T08:27:49.055Z,18.60
2023-04-29T08:30:17.661Z,12.70
2023-04-29T08:32:46.025Z,13.00
2023-04-29T08:35:14.318Z,14.00
2023-04-29T08:37:42.690Z,19.10
2023-04-29T08:40:11.478Z,11.90
2023-04-29T08:42:39.851Z,16.10
2023-04-29T08:45:08.646Z,14.70
2023-04-29T08:47:37.303Z,11.80
2023-04-29T08:50:06.730Z,11.50
2023-04-29T08:52:36.264Z,9.50
2023-04-29T08:55:05.775Z,10.60
2023-04-29T08:57:42.816Z,9.30
2023-04-29T09:00:12.192Z,7.90
2023-04-29T09:02:51.397Z,9.20
2023-04-29T09:05:20.134Z,7.90
2023-04-29T09:07:48.930Z,7.20
2023-04-29T09:10:17.414Z,8.60
2023-04-29T09:12:46.489Z,7.40
2023-04-29T09:15:14.669Z,7.00
2023-04-29T09:17:44.843Z,5.20
2023-04-29T09:20:22.234Z,7.90
2023-04-29T09:23:04.245Z,6.80
2023-04-29T09:25:32.721Z,6.00
2023-04-29T09:28:15.272Z,7.90
2023-04-29T09:30:47.425Z,8.60
2023-04-29T09:33:17.541Z,8.40
2023-04-29T09:38:16.558Z,7.80
2023-04-29T09:40:58.316Z,7.80
2023-04-29T09:43:27.658Z,6.90
2023-04-29T09:45:56.025Z,6.30
2023-04-29T09:48:31.839Z,6.80
2023-04-29T09:51:04.730Z,7.70
2023-04-29T09:53:33.577Z,7.90
2023-04-29T09:56:02.865Z,6.90
2023-04-29T09:58:39.067Z,6.20
2023-04-29T10:01:07.736Z,6.90
2023-04-29T10:03:38.170Z,5.70
2023-04-29T10:06:07.944Z,5.60
2023-04-29T10:08:36.498Z,6.10
2023-04-29T10:11:06.155Z,4.30
2023-04-29T10:13:38.941Z,5.60
2023-04-29T10:16:24.009Z,5.70
2023-04-29T10:18:56.733Z,6.10
2023-04-29T10:21:31.357Z,5.70
2023-04-29T10:24:00.550Z,4.70
2023-04-29T10:26:30.091Z,6.30
2023-04-29T10:29:02.444Z,6.50
2023-04-29T10:31:32.165Z,5.10
2023-04-29T10:34:01.953Z,4.50
2023-04-29T10:36:31.795Z,6.40
2023-04-29T10:39:02.082Z,5.40
2023-04-29T10:41:35.762Z,4.10
2023-04-29T10:44:04.791Z,3.70
2023-04-29T10:46:33.067Z,3.70
2023-04-29T10:49:03.495Z,3.60
2023-04-29T10:51:34.300Z,3.40
2023-04-29T10:54:16.716Z,2.60
2023-04-29T10:56:50.596Z,2.60
2023-04-29T10:59:28.101Z,2.80
2023-04-29T11:01:56.706Z,4.80
2023-04-29T11:04:25.119Z,4.70
2023-04-29T11:06:59.268Z,4.10
2023-04-29T11:09:29.096Z,4.40
2023-04-29T11:14:37.586Z,3.40
2023-04-29T11:17:08.763Z,4.40
2023-04-29T11:19:41.237Z,2.90
2023-04-29T11:22:10.659Z,3.30
2023-04-29T11:25:02.180Z,7.80
2023-04-29T11:27:32.704Z,2.40
2023-04-29T11:30:04.119Z,2.80
2023-04-29T11:32:37.234Z,2.50
2023-04-29T11:35:09.297Z,5.00
2023-04-29T11:37:38.178Z,5.80
2023-04-29T11:40:07.407Z,3.60
2023-04-29T11:42:39.030Z,3.80
2023-04-29T11:45:07.712Z,3.10
2023-04-29T11:47:36.123Z,3.00
2023-04-29T11:50:09.087Z,2.50
2023-04-29T11:52:39.204Z,7.20
2023-04-29T11:55:11.917Z,2.40
2023-04-29T11:57:40.857Z,2.90
2023-04-29T12:00:13.332Z,2.50
2023-04-29T12:02:45.387Z,3.50
2023-04-29T12:05:16.236Z,2.60
2023-04-29T12:07:45.011Z,3.90
2023-04-29T12:10:13.343Z,5.40
2023-04-29T12:12:44.291Z,4.00
2023-04-29T12:15:13.316Z,5.70
2023-04-29T12:17:43.062Z,3.40
2023-04-29T12:20:12.311Z,3.70
2023-04-29T12:22:44.216Z,3.10
2023-04-29T12:25:12.990Z,2.70
2023-04-29T12:27:44.235Z,2.30
2023-04-29T12:30:13.104Z,2.40
2023-04-29T12:32:42.202Z,2.70
2023-04-29T12:35:17.885Z,1.70
2023-04-29T12:37:52.342Z,1.90
2023-04-29T12:40:21.209Z,1.90
2023-04-29T12:42:49.629Z,2.30
2023-04-29T12:45:28.351Z,2.00
2023-04-29T12:48:00.966Z,3.50
2023-04-29T12:50:34.541Z,3.50
2023-04-29T12:53:05.042Z,2.60
2023-04-29T12:55:38.049Z,2.50
2023-04-29T12:58:07.528Z,3.30
2023-04-29T13:00:37.715Z,4.20
2023-04-29T13:03:06.323Z,2.50
2023-04-29T13:05:35.045Z,3.60
2023-04-29T13:08:06.097Z,12.20
2023-04-29T13:10:34.857Z,9.30
2023-04-29T13:13:03.130Z,9.20
2023-04-29T13:15:33.432Z,9.40
2023-04-29T13:18:02.666Z,9.90
2023-04-29T13:20:31.430Z,10.30
2023-04-29T13:22:59.809Z,7.00
2023-04-29T13:25:27.982Z,5.80
2023-04-29T13:27:56.171Z,7.10
2023-04-29T13:30:24.539Z,3.70
2023-04-29T13:32:55.521Z,3.60
2023-04-29T13:35:26.915Z,3.10
2023-04-29T13:37:55.093Z,6.40
2023-04-29T13:40:27.562Z,4.00
2023-04-29T13:43:04.375Z,4.00
2023-04-29T13:45:39.928Z,5.90
2023-04-29T13:48:20.976Z,6.50
2023-04-29T13:56:59.704Z,7.20
2023-04-29T14:03:54.272Z,7.20
2023-04-29T14:06:22.710Z,7.00
2023-04-29T14:08:51.187Z,6.90
2023-04-29T14:11:19.876Z,7.30
2023-04-29T14:13:47.952Z,8.20
2023-04-29T14:16:17.191Z,8.20
2023-04-29T14:18:45.438Z,9.30
2023-04-29T14:21:13.998Z,8.80
2023-04-29T14:23:42.277Z,8.40
2023-04-29T14:26:27.020Z,8.90
2023-04-29T14:29:00.054Z,7.90
2023-04-29T14:31:30.793Z,8.10
2023-04-29T14:33:59.568Z,7.70
2023-04-29T14:36:28.448Z,8.00
2023-04-29T14:38:56.701Z,10.10
2023-04-29T14:41:25.385Z,9.10
2023-04-29T14:43:53.760Z,9.10
2023-04-29T14:46:25.527Z,6.80
2023-04-29T14:48:53.689Z,7.20
2023-04-29T14:51:21.756Z,7.60
2023-04-29T14:53:50.440Z,6.90
2023-04-29T14:56:18.718Z,6.30
2023-04-29T14:58:46.788Z,6.70
2023-04-29T15:01:15.073Z,6.50
2023-04-29T15:03:44.781Z,7.20
2023-04-29T15:08:41.932Z,7.00
2023-04-29T15:11:10.204Z,19.10
2023-04-29T15:13:38.479Z,20.70
2023-04-29T15:16:08.001Z,19.20
2023-04-29T15:18:36.897Z,14.70
2023-04-29T15:21:05.149Z,25.00
2023-04-29T15:23:33.636Z,14.30
2023-04-29T15:26:01.801Z,10.20
2023-04-29T15:28:30.082Z,10.30
2023-04-29T15:31:00.003Z,9.40
2023-04-29T15:33:28.162Z,4.70
2023-04-29T15:35:57.265Z,4.30
2023-04-29T15:38:25.427Z,5.00
2023-04-29T15:40:59.440Z,3.80
2023-04-29T15:43:28.317Z,2.00
2023-04-29T15:45:56.951Z,3.30
2023-04-29T15:48:25.405Z,3.30
2023-04-29T15:50:53.878Z,2.50
2023-04-29T15:53:23.438Z,2.50
2023-04-29T15:55:51.856Z,3.10
2023-04-29T15:58:20.019Z,5.20
2023-04-29T16:00:48.748Z,7.20
2023-04-29T16:03:16.946Z,10.90
2023-04-29T16:05:45.363Z,9.30
2023-04-29T16:08:13.941Z,8.40
2023-04-29T16:10:42.011Z,9.80
2023-04-29T16:13:10.186Z,10.20
2023-04-29T16:15:38.574Z,9.40
2023-04-29T16:18:06.935Z,9.90
2023-04-29T16:20:35.018Z,10.40
2023-04-29T16:23:03.294Z,12.80
2023-04-29T16:25:31.454Z,19.30
2023-04-29T16:27:59.538Z,17.10
2023-04-29T16:30:28.317Z,28.20
2023-04-29T16:32:56.727Z,16.80
2023-04-29T16:35:26.809Z,16.00
2023-04-29T16:37:55.811Z,18.40
2023-04-29T16:40:24.646Z,17.40
2023-04-29T16:42:53.614Z,20.20
2023-04-29T16:45:23.834Z,21.10
2023-04-29T16:50:20.655Z,22.60
2023-04-29T16:52:48.837Z,23.20
2023-04-29T16:55:17.117Z,19.70
2023-04-29T16:57:45.276Z,19.50
2023-04-29T17:00:14.143Z,19.20
2023-04-29T17:02:43.174Z,20.50
2023-04-29T17:05:11.658Z,21.30
2023-04-29T17:07:40.833Z,22.50
2023-04-29T17:10:10.026Z,21.50
2023-04-29T17:12:39.123Z,22.90
2023-04-29T17:15:08.010Z,22.50
2023-04-29T17:17:36.654Z,24.30
2023-04-29T17:20:05.582Z,22.10
2023-04-29T17:22:33.761Z,24.70
2023-04-29T17:25:02.556Z,23.20
2023-04-29T17:27:31.199Z,25.70
2023-04-29T17:29:59.313Z,24.70
2023-04-29T17:32:30.672Z,24.00
2023-04-29T17:34:59.736Z,24.70
2023-04-29T17:37:30.446Z,24.90
2023-04-29T17:39:58.745Z,27.20
2023-04-29T17:42:26.910Z,26.30
2023-04-29T17:44:55.198Z,24.60
2023-04-29T17:47:23.523Z,25.80
2023-04-29T17:49:52.206Z,26.10
2023-04-29T17:52:21.518Z,26.60
2023-04-29T17:54:49.834Z,25.90
2023-04-29T17:57:18.003Z,28.10
2023-04-29T17:59:47.293Z,26.90
2023-04-29T18:02:15.567Z,25.80
2023-04-29T18:04:43.846Z,26.90
2023-04-29T18:07:12.125Z,29.60
2023-04-29T18:09:40.301Z,27.70
2023-04-29T18:12:09.010Z,30.40
2023-04-29T18:14:39.296Z,27.20
2023-04-29T18:17:07.690Z,27.90
2023-04-29T18:19:35.949Z,30.90
2023-04-29T18:22:04.122Z,29.90
2023-04-29T18:24:32.303Z,31.50
2023-04-29T18:27:00.475Z,32.90
2023-04-29T18:29:28.647Z,34.20
2023-04-29T18:31:56.895Z,34.80
2023-04-29T18:34:25.288Z,31.50
2023-04-29T18:36:53.567Z,37.10
2023-04-29T18:39:21.951Z,35.90
2023-04-29T18:41:50.115Z,36.10
2023-04-29T18:44:18.283Z,31.40
2023-04-29T18:46:46.457Z,36.00
2023-04-29T18:49:17.159Z,31.20
2023-04-29T18:51:48.078Z,32.30
2023-04-29T18:54:17.950Z,31.20
2023-04-29T18:56:47.706Z,29.40
2023-04-29T18:59:19.619Z,25.80
2023-04-29T19:01:49.138Z,33.40
2023-04-29T19:04:17.413Z,53.20
2023-04-29T19:06:45.602Z,24.60
2023-04-29T19:09:14.552Z,38.00
2023-04-29T19:11:42.830Z,26.50
2023-04-29T19:14:11.304Z,52.10
2023-04-29T19:16:39.676Z,26.20
2023-04-29T19:19:07.865Z,41.40
2023-04-29T19:21:36.226Z,53.60
2023-04-29T19:24:04.807Z,28.00
2023-04-29T19:26:34.955Z,30.20
2023-04-29T19:29:04.740Z,59.90
2023-04-29T19:31:33.342Z,57.50
2023-04-29T19:34:02.008Z,39.20
2023-04-29T19:36:30.380Z,31.30
2023-04-29T19:38:58.570Z,37.40
2023-04-29T19:41:26.732Z,36.90
2023-04-29T19:43:54.797Z,30.30
2023-04-29T19:46:22.983Z,52.40
2023-04-29T19:48:51.266Z,40.10
2023-04-29T19:51:19.523Z,37.30
2023-04-29T19:53:47.796Z,41.50
2023-04-29T19:56:16.580Z,33.40
2023-04-29T19:58:44.753Z,31.80
2023-04-29T20:01:12.835Z,32.70
2023-04-29T20:03:41.929Z,46.70
2023-04-29T20:06:10.678Z,44.10
2023-04-29T20:08:38.884Z,45.00
2023-04-29T20:11:07.053Z,35.70
2023-04-29T20:13:35.222Z,23.60
2023-04-29T20:16:03.422Z,42.00
2023-04-29T20:18:31.666Z,24.30
2023-04-29T20:21:00.047Z,45.10
2023-04-29T20:23:28.318Z,26.30
2023-04-29T20:25:57.102Z,27.40
2023-04-29T20:28:25.377Z,42.50
2023-04-29T20:30:53.449Z,38.40
2023-04-29T20:33:21.826Z,47.40
2023-04-29T20:35:50.004Z,47.00
2023-04-29T20:38:18.176Z,20.40
2023-04-29T20:40:46.442Z,25.80
2023-04-29T20:43:14.717Z,28.00
2023-04-29T20:45:43.139Z,25.00
2023-04-29T20:48:11.288Z,26.70
2023-04-29T20:50:39.440Z,26.90
2023-04-29T20:53:07.717Z,21.70
2023-04-29T20:55:35.995Z,17.30
2023-04-29T20:58:04.063Z,20.60
2023-04-29T21:00:32.236Z,17.70
2023-04-29T21:03:00.454Z,15.60
2023-04-29T21:05:28.685Z,14.60
2023-04-29T21:07:56.855Z,16.00
2023-04-29T21:10:25.131Z,16.70
2023-04-29T21:12:53.303Z,16.00
2023-04-29T21:15:21.481Z,18.40
2023-04-29T21:17:49.670Z,17.70
2023-04-29T21:20:17.834Z,18.80
2023-04-29T21:22:46.093Z,19.30
2023-04-29T21:25:14.164Z,15.60
2023-04-29T21:27:42.334Z,15.40
2023-04-29T21:30:11.428Z,17.90
2023-04-29T21:32:39.521Z,18.10
2023-04-29T21:35:08.765Z,16.10
2023-04-29T21:37:37.275Z,17.70
2023-04-29T21:40:06.268Z,15.00
2023-04-29T21:42:34.951Z,15.90
2023-04-29T21:45:03.430Z,17.40
2023-04-29T21:47:31.723Z,14.00
2023-04-29T21:50:00.901Z,18.40
2023-04-29T21:52:34.945Z,14.70
2023-04-29T21:55:04.103Z,16.50
2023-04-29T21:57:43.689Z,16.00
2023-04-29T22:00:33.188Z,17.40
2023-04-29T22:03:05.613Z,17.40
2023-04-29T22:05:33.872Z,18.10
2023-04-29T22:08:03.259Z,17.50
2023-04-29T22:10:31.948Z,16.10
2023-04-29T22:13:00.224Z,20.00
2023-04-29T22:15:29.465Z,16.30
2023-04-29T22:17:58.420Z,16.50
2023-04-29T22:20:28.032Z,22.60
2023-04-29T22:22:56.595Z,16.70
2023-04-29T22:25:24.880Z,16.20
2023-04-29T22:27:53.042Z,14.00
2023-04-29T22:30:21.363Z,11.30
2023-04-29T22:32:49.642Z,13.40
2023-04-29T22:35:17.997Z,13.10
2023-04-29T22:37:46.352Z,14.10
2023-04-29T22:40:14.621Z,14.50
2023-04-29T22:42:43.167Z,14.00
2023-04-29T22:45:12.600Z,11.90
2023-04-29T22:47:40.929Z,19.40
2023-04-29T22:50:10.387Z,12.70
2023-04-29T22:52:38.569Z,13.70
2023-04-29T22:55:07.278Z,13.20
2023-04-29T22:57:35.627Z,12.30
2023-04-29T23:00:04.304Z,12.10
2023-04-29T23:02:32.548Z,13.80
2023-04-29T23:05:01.045Z,15.00
2023-04-29T23:07:29.336Z,11.60
2023-04-29T23:09:57.501Z,13.80
2023-04-29T23:12:25.683Z,15.40
2023-04-29T23:14:53.949Z,13.50
2023-04-29T23:17:22.221Z,11.30
2023-04-29T23:19:50.402Z,13.70
2023-04-29T23:22:18.774Z,12.60
2023-04-29T23:24:47.067Z,11.90
2023-04-29T23:27:15.224Z,13.50
2023-04-29T23:29:43.394Z,13.40
2023-04-29T23:32:11.463Z,11.20
2023-04-29T23:34:39.737Z,10.90
2023-04-29T23:37:07.910Z,12.00
2023-04-29T23:39:36.162Z,14.30
2023-04-29T23:42:04.356Z,9.00
2023-04-29T23:44:32.528Z,10.50
2023-04-29T23:47:00.909Z,10.00
2023-04-29T23:49:28.979Z,11.80
2023-04-29T23:51:57.169Z,10.90
2023-04-29T23:54:25.431Z,11.30
2023-04-29T23:56:53.595Z,12.40
2023-04-29T23:59:21.790Z,10.60
